Time;durP1;ratioP1;P1;durP2;ratioP2;P2;SDS_P1;SDS_P2;PMS_P1;PMS_P2;Temp;Humidity;BMP_temperature;BMP_pressure;BME280_temperature;BME280_humidity;BME280_pressure;Samples;Min_cycle;Max_cycle;Signal;HPM_P1;HPM_P2
2024/01/03 00:00:21;;;;;;;16.85;3.75;;;;;;;11.62;100.00;98379.81;5098011;27;20036;-74
2024/01/03 00:02:48;;;;;;;15.35;3.60;;;;;;;11.62;100.00;98402.00;5094058;27;20116;-74
2024/01/03 00:05:14;;;;;;;21.15;3.88;;;;;;;11.56;100.00;98397.34;5113109;27;20031;-74
2024/01/03 00:07:41;;;;;;;17.23;3.22;;;;;;;11.56;100.00;98396.50;5100127;27;20236;-74
2024/01/03 00:10:26;;;;;;;21.83;3.20;;;;;;;11.54;100.00;98409.16;5088579;28;20024;-74
2024/01/03 00:12:52;;;;;;;16.75;3.80;;;;;;;11.44;100.00;98417.28;5095528;28;20036;-73
2024/01/03 00:15:36;;;;;;;23.63;4.10;;;;;;;11.48;100.00;98415.97;5112472;27;20281;-73
2024/01/03 00:18:04;;;;;;;21.70;4.28;;;;;;;11.45;100.00;98405.66;5073537;28;20044;-74
2024/01/03 00:20:30;;;;;;;21.75;3.22;;;;;;;11.44;100.00;98409.28;5102472;27;20909;-74
2024/01/03 00:22:56;;;;;;;16.58;3.30;;;;;;;11.55;100.00;98424.19;5094894;28;21125;-74
2024/01/03 00:25:29;;;;;;;21.08;4.07;;;;;;;11.51;100.00;98422.84;5094044;28;20068;-74
2024/01/03 00:27:55;;;;;;;17.92;4.05;;;;;;;11.51;100.00;98414.84;5096788;27;20853;-74
2024/01/03 00:30:21;;;;;;;13.77;3.22;;;;;;;11.53;100.00;98412.81;5087169;27;20053;-74
2024/01/03 00:32:47;;;;;;;21.23;3.83;;;;;;;11.51;100.00;98434.34;5102891;27;20311;-74
2024/01/03 00:35:13;;;;;;;17.83;3.85;;;;;;;11.54;100.00;98428.66;5096923;27;20066;-74
2024/01/03 00:37:44;;;;;;;17.30;3.92;;;;;;;11.58;100.00;98421.19;5077676;27;20078;-74
2024/01/03 00:40:30;;;;;;;17.77;4.25;;;;;;;11.57;100.00;98430.19;5098471;27;20105;-75
2024/01/03 00:42:56;;;;;;;22.65;4.15;;;;;;;11.56;100.00;98437.38;5093165;27;20531;-74
2024/01/03 00:45:21;;;;;;;11.32;2.75;;;;;;;11.48;100.00;98418.66;5104345;27;20039;-74
2024/01/03 00:47:47;;;;;;;22.27;4.05;;;;;;;11.54;100.00;98436.69;5093545;28;20055;-74
2024/01/03 00:50:13;;;;;;;24.08;4.20;;;;;;;11.46;100.00;98457.19;5084205;27;20880;-74
2024/01/03 00:52:39;;;;;;;20.20;3.25;;;;;;;11.48;100.00;98452.50;5100698;27;20115;-74
2024/01/03 00:55:05;;;;;;;13.77;3.35;;;;;;;11.57;100.00;98464.88;5096856;27;20028;-73
2024/01/03 00:57:31;;;;;;;18.20;3.45;;;;;;;11.48;100.00;98445.34;5103907;27;20050;-75
2024/01/03 00:59:57;;;;;;;17.52;3.95;;;;;;;11.50;100.00;98483.41;5069127;27;20032;-75
2024/01/03 01:02:22;;;;;;;16.58;3.33;;;;;;;11.53;100.00;98461.69;5099951;27;20092;-73
2024/01/03 01:04:48;;;;;;;24.23;2.95;;;;;;;11.47;100.00;98488.22;5080284;28;20040;-74
2024/01/03 01:07:13;;;;;;;14.10;3.60;;;;;;;11.49;100.00;98459.50;5099892;27;20036;-74
2024/01/03 01:09:40;;;;;;;17.13;3.15;;;;;;;11.46;100.00;98487.38;5096226;27;20125;-74
2024/01/03 01:12:05;;;;;;;21.40;3.50;;;;;;;11.40;100.00;98499.53;5097400;27;20371;-73
2024/01/03 01:14:31;;;;;;;17.38;4.07;;;;;;;11.43;100.00;98489.53;5097922;27;20030;-73
2024/01/03 01:16:56;;;;;;;23.63;4.82;;;;;;;11.50;100.00;98487.91;5102047;27;20032;-73
2024/01/03 01:19:23;;;;;;;21.90;4.45;;;;;;;11.50;100.00;98499.41;5097020;27;20040;-74
2024/01/03 01:21:48;;;;;;;21.38;4.22;;;;;;;11.55;100.00;98478.41;5101547;27;20035;-74
2024/01/03 01:24:15;;;;;;;13.15;3.28;;;;;;;11.49;100.00;98476.34;5090936;27;20133;-74
2024/01/03 01:26:41;;;;;;;16.60;3.63;;;;;;;11.54;100.00;98507.91;5089321;27;20101;-74
2024/01/03 01:29:06;;;;;;;13.75;3.65;;;;;;;11.57;100.00;98495.09;5083823;27;20247;-74
2024/01/03 01:31:32;;;;;;;24.70;4.28;;;;;;;11.55;100.00;98506.94;5087147;28;20556;-74
2024/01/03 01:33:57;;;;;;;21.30;3.85;;;;;;;11.55;100.00;98505.09;5097169;27;20063;-74
2024/01/03 01:36:23;;;;;;;19.88;3.80;;;;;;;11.48;100.00;98489.88;5098034;27;20039;-74
2024/01/03 01:38:48;;;;;;;27.20;5.68;;;;;;;11.49;100.00;98518.22;5094697;27;20043;-74
2024/01/03 01:41:14;;;;;;;22.00;3.92;;;;;;;11.47;100.00;98523.75;5088992;27;20031;-74
2024/01/03 01:43:39;;;;;;;22.42;4.28;;;;;;;11.47;100.00;98531.75;5099280;27;20498;-73
2024/01/03 01:46:06;;;;;;;28.73;5.47;;;;;;;11.43;100.00;98534.88;5096225;27;20051;-74
2024/01/03 01:48:32;;;;;;;26.92;4.53;;;;;;;11.42;100.00;98544.72;5097559;27;20036;-74
2024/01/03 01:50:57;;;;;;;22.80;4.35;;;;;;;11.54;100.00;98545.28;5093348;27;20032;-74
2024/01/03 01:53:23;;;;;;;22.38;4.38;;;;;;;11.47;100.00;98539.75;5094701;27;20036;-74
2024/01/03 01:55:49;;;;;;;23.77;4.38;;;;;;;11.49;100.00;98545.75;5084477;27;20035;-73
2024/01/03 01:58:14;;;;;;;29.05;5.03;;;;;;;11.49;100.00;98545.75;5097018;27;20532;-73
2024/01/03 02:00:41;;;;;;;22.05;5.28;;;;;;;11.45;100.00;98549.75;5097100;27;20081;-74
2024/01/03 02:03:09;;;;;;;26.00;5.13;;;;;;;11.39;100.00;98567.22;5097148;27;20038;-73
2024/01/03 02:05:37;;;;;;;23.80;4.40;;;;;;;11.34;100.00;98561.50;5076954;27;20042;-74
2024/01/03 02:08:07;;;;;;;28.92;4.85;;;;;;;11.47;100.00;98574.44;5106665;27;20039;-73
2024/01/03 02:10:33;;;;;;;23.58;5.45;;;;;;;11.46;100.00;98577.28;5101569;27;20066;-74
2024/01/03 02:12:58;;;;;;;27.23;5.85;;;;;;;11.46;100.00;98588.78;5085628;27;20040;-74
2024/01/03 02:15:24;;;;;;;27.25;5.35;;;;;;;11.36;100.00;98585.41;5104525;27;20043;-73
2024/01/03 02:17:51;;;;;;;23.17;4.88;;;;;;;11.47;100.00;98570.94;5091071;27;20039;-73
2024/01/03 02:20:16;;;;;;;39.42;8.23;;;;;;;11.35;100.00;98559.72;5110389;27;20036;-74
2024/01/03 02:22:42;;;;;;;32.13;5.07;;;;;;;11.46;100.00;98587.94;5108631;27;20032;-74
2024/01/03 02:25:10;;;;;;;33.00;5.30;;;;;;;11.39;100.00;98604.56;5095689;27;20032;-74
2024/01/03 02:27:36;;;;;;;26.38;5.45;;;;;;;11.41;100.00;98604.44;5092650;28;20127;-74
2024/01/03 02:30:04;;;;;;;24.48;5.32;;;;;;;11.34;100.00;98587.38;5093174;28;20077;-74
2024/01/03 02:32:29;;;;;;;29.77;5.53;;;;;;;11.34;100.00;98580.19;5097303;27;20861;-74
2024/01/03 02:34:55;;;;;;;31.88;6.38;;;;;;;11.32;100.00;98603.53;5100800;27;20032;-74
2024/01/03 02:37:22;;;;;;;29.80;5.00;;;;;;;11.39;100.00;98601.91;5085116;27;20040;-74
2024/01/03 02:39:49;;;;;;;36.72;5.18;;;;;;;11.30;100.00;98608.22;5083027;27;20968;-73
2024/01/03 02:42:14;;;;;;;29.88;5.88;;;;;;;11.36;100.00;98617.41;5106540;27;21035;-74
2024/01/03 02:44:40;;;;;;;30.42;5.80;;;;;;;11.33;100.00;98599.88;5100254;27;20090;-74
2024/01/03 02:47:06;;;;;;;24.70;5.93;;;;;;;11.31;100.00;98607.22;5087110;27;20039;-74
2024/01/03 02:49:31;;;;;;;24.23;5.45;;;;;;;11.31;100.00;98609.03;5106292;27;20452;-74
2024/01/03 02:52:00;;;;;;;33.10;5.18;;;;;;;11.26;100.00;98620.19;5083286;27;20045;-73
2024/01/03 02:54:26;;;;;;;27.67;5.22;;;;;;;11.34;100.00;98622.88;5092431;27;20043;-74
2024/01/03 02:56:53;;;;;;;23.25;4.93;;;;;;;11.31;100.00;98620.56;5096752;27;20143;-74
2024/01/03 02:59:19;;;;;;;26.40;4.65;;;;;;;11.20;100.00;98622.66;5093843;27;20309;-73
2024/01/03 03:01:45;;;;;;;26.02;5.97;;;;;;;11.22;100.00;98628.66;5101158;27;20050;-73
2024/01/03 03:04:10;;;;;;;27.17;6.05;;;;;;;11.18;100.00;98624.63;5099046;27;20035;-74
2024/01/03 03:06:36;;;;;;;25.70;5.40;;;;;;;11.17;100.00;98629.13;5097620;27;20044;-74
2024/01/03 03:09:01;;;;;;;34.00;7.13;;;;;;;11.18;100.00;98633.44;5083104;28;20040;-74
2024/01/03 03:11:27;;;;;;;23.33;5.50;;;;;;;11.13;100.00;98631.25;5100772;27;20078;-74
2024/01/03 03:13:53;;;;;;;26.67;4.78;;;;;;;11.09;100.00;98635.25;5103760;27;20035;-74
2024/01/03 03:16:19;;;;;;;29.92;5.50;;;;;;;11.10;100.00;98642.25;5093441;27;20047;-74
2024/01/03 03:18:45;;;;;;;27.23;4.63;;;;;;;11.07;100.00;98642.53;5098780;27;20078;-73
2024/01/03 03:21:10;;;;;;;26.13;5.32;;;;;;;11.08;100.00;98649.53;5098264;27;20111;-74
2024/01/03 03:23:36;;;;;;;27.13;5.13;;;;;;;11.07;100.00;98636.38;5103914;27;20036;-74
2024/01/03 03:26:03;;;;;;;38.67;6.15;;;;;;;11.08;100.00;98643.38;5096738;27;20053;-73
2024/01/03 03:28:30;;;;;;;29.88;6.63;;;;;;;11.15;100.00;98652.44;5099086;27;20043;-74
2024/01/03 03:30:58;;;;;;;31.33;5.90;;;;;;;11.23;100.00;98657.00;5104547;27;20043;-74
2024/01/03 03:33:23;;;;;;;27.80;6.13;;;;;;;11.06;100.00;98642.72;5101943;27;20027;-73
2024/01/03 03:35:49;;;;;;;30.33;6.00;;;;;;;11.01;100.00;98655.66;5098583;27;20105;-74
2024/01/03 03:38:14;;;;;;;34.55;6.20;;;;;;;10.92;100.00;98652.09;5098830;27;20651;-74
2024/01/03 03:40:40;;;;;;;34.67;5.40;;;;;;;10.95;100.00;98662.47;5097908;27;20047;-74
2024/01/03 03:43:05;;;;;;;33.30;6.57;;;;;;;10.99;100.00;98660.28;5092201;27;20032;-73
2024/01/03 03:45:34;;;;;;;31.17;4.78;;;;;;;10.98;100.00;98643.47;5097767;27;20032;-74
2024/01/03 03:47:59;;;;;;;35.85;5.43;;;;;;;11.00;100.00;98657.50;5093763;27;20039;-73
2024/01/03 03:50:25;;;;;;;27.88;5.95;;;;;;;11.06;100.00;98650.72;5097254;27;20474;-73
2024/01/03 03:52:50;;;;;;;40.47;6.57;;;;;;;11.10;100.00;98668.91;5097910;27;20032;-74
2024/01/03 03:55:16;;;;;;;25.75;5.05;;;;;;;10.89;100.00;98663.91;5096762;27;20292;-74
2024/01/03 03:57:41;;;;;;;34.95;5.57;;;;;;;10.84;100.00;98665.31;5076900;27;20109;-74
2024/01/03 04:00:08;;;;;;;34.53;6.63;;;;;;;10.85;100.00;98677.69;5059989;28;20032;-74
2024/01/03 04:02:39;;;;;;;26.58;5.40;;;;;;;10.82;100.00;98678.81;5098255;27;20032;-74
2024/01/03 04:05:05;;;;;;;21.45;4.95;;;;;;;10.78;100.00;98672.13;5099635;27;20576;-74
2024/01/03 04:07:31;;;;;;;27.25;5.25;;;;;;;10.78;100.00;98680.09;5092475;27;21028;-74
2024/01/03 04:09:57;;;;;;;32.88;6.55;;;;;;;10.94;100.00;98673.25;5098057;27;20035;-74
2024/01/03 04:12:23;;;;;;;31.38;5.82;;;;;;;10.88;100.00;98662.22;5089203;27;21158;-73
2024/01/03 04:14:48;;;;;;;34.97;5.32;;;;;;;10.94;100.00;98660.75;5090726;28;20024;-74
2024/01/03 04:17:15;;;;;;;34.67;5.75;;;;;;;10.91;100.00;98694.91;5090438;28;20107;-74
2024/01/03 04:19:41;;;;;;;26.42;5.78;;;;;;;10.89;100.00;98705.69;5098534;27;20047;-74
2024/01/03 04:22:07;;;;;;;40.22;6.85;;;;;;;10.76;100.00;98694.59;5098609;27;20032;-74
2024/01/03 04:24:32;;;;;;;34.75;5.68;;;;;;;10.63;100.00;98703.78;5066481;28;20176;-74
2024/01/03 04:26:58;;;;;;;37.55;6.05;;;;;;;10.60;100.00;98701.44;5080776;27;20051;-75
2024/01/03 04:29:23;;;;;;;34.78;6.25;;;;;;;10.67;100.00;98708.81;5065384;27;20041;-74
2024/01/03 04:31:49;;;;;;;27.00;6.65;;;;;;;10.62;100.00;98696.78;5097297;27;20043;-73
2024/01/03 04:34:14;;;;;;;30.77;7.00;;;;;;;10.57;100.00;98703.56;5093822;27;20071;-74
2024/01/03 04:36:40;;;;;;;32.95;8.38;;;;;;;10.64;100.00;98715.28;5091853;28;20040;-73
2024/01/03 04:39:05;;;;;;;33.25;8.18;;;;;;;10.69;100.00;98714.81;5089912;28;20044;-74
2024/01/03 04:41:31;;;;;;;32.13;10.07;;;;;;;10.73;100.00;98713.53;5095616;27;20036;-73
2024/01/03 04:43:56;;;;;;;45.47;11.15;;;;;;;10.81;100.00;98713.63;5095635;27;20036;-74
2024/01/03 04:46:24;;;;;;;33.38;11.50;;;;;;;10.88;100.00;98709.38;5094198;27;20051;-74
2024/01/03 04:48:49;;;;;;;45.42;14.35;;;;;;;10.90;100.00;98704.75;5084588;27;20129;-74
2024/01/03 04:51:16;;;;;;;51.15;13.70;;;;;;;10.99;100.00;98714.47;5093343;27;20032;-74
2024/01/03 04:53:41;;;;;;;41.15;13.27;;;;;;;11.06;100.00;98702.22;5094675;27;20171;-74
2024/01/03 04:56:07;;;;;;;37.25;12.02;;;;;;;11.06;100.00;98701.38;5095439;27;20082;-73
2024/01/03 04:58:33;;;;;;;35.63;9.73;;;;;;;11.15;100.00;98709.31;5091278;28;20087;-74
2024/01/03 05:00:58;;;;;;;39.63;8.85;;;;;;;11.08;100.00;98699.38;5099847;27;20070;-74
2024/01/03 05:03:24;;;;;;;40.63;8.38;;;;;;;11.11;100.00;98697.25;5093116;27;20081;-74
2024/01/03 05:05:49;;;;;;;37.08;8.40;;;;;;;11.19;100.00;98715.16;5100569;27;20346;-74
2024/01/03 05:08:15;;;;;;;36.25;8.27;;;;;;;11.13;100.00;98711.28;5101837;27;20295;-74
2024/01/03 05:10:41;;;;;;;32.67;7.63;;;;;;;11.13;100.00;98723.78;5097500;27;20464;-73
2024/01/03 05:13:07;;;;;;;37.53;7.40;;;;;;;10.99;100.00;98733.13;5099620;27;20028;-74
2024/01/03 05:15:33;;;;;;;36.28;6.85;;;;;;;10.88;100.00;98720.03;5104941;27;20033;-74
2024/01/03 05:17:58;;;;;;;33.10;7.10;;;;;;;10.72;100.00;98735.88;5112136;27;20035;-73
2024/01/03 05:20:24;;;;;;;38.10;6.75;;;;;;;10.60;100.00;98732.59;5109497;27;20833;-74
2024/01/03 05:22:50;;;;;;;32.38;6.28;;;;;;;10.34;100.00;98749.25;5106311;27;20028;-74
2024/01/03 05:25:15;;;;;;;30.85;8.15;;;;;;;10.32;100.00;98769.03;5104092;27;20450;-74
2024/01/03 05:27:41;;;;;;;40.50;7.47;;;;;;;10.34;100.00;98765.25;5083811;28;20048;-74
2024/01/03 05:30:07;;;;;;;41.95;6.93;;;;;;;10.10;100.00;98776.38;5102583;28;20055;-74
2024/01/03 05:32:32;;;;;;;38.20;7.40;;;;;;;10.19;100.00;98781.78;5105969;27;20696;-74
2024/01/03 05:34:58;;;;;;;37.75;8.27;;;;;;;10.23;100.00;98781.34;5096821;27;20036;-74
2024/01/03 05:37:23;;;;;;;35.97;7.65;;;;;;;10.19;100.00;98784.47;5111015;27;20046;-74
2024/01/03 05:39:49;;;;;;;39.30;8.13;;;;;;;10.05;100.00;98802.59;5108934;27;20236;-74
2024/01/03 05:42:14;;;;;;;37.33;7.10;;;;;;;10.06;100.00;98793.63;5105067;27;20036;-74
2024/01/03 05:44:40;;;;;;;42.35;8.15;;;;;;;9.95;100.00;98799.13;5114267;27;20181;-74
2024/01/03 05:47:05;;;;;;;29.25;7.25;;;;;;;9.93;100.00;98801.06;5115749;27;20101;-74
2024/01/03 05:49:31;;;;;;;32.85;6.07;;;;;;;9.85;100.00;98811.63;5112343;27;20020;-74
2024/01/03 05:51:58;;;;;;;28.15;5.80;;;;;;;9.86;100.00;98800.81;5126139;27;20559;-74
2024/01/03 05:54:23;;;;;;;30.35;7.95;;;;;;;9.88;100.00;98813.13;5114992;27;20028;-74
2024/01/03 05:56:50;;;;;;;33.17;6.82;;;;;;;9.92;100.00;98810.03;5115371;27;20470;-74
2024/01/03 05:59:15;;;;;;;39.67;7.95;;;;;;;9.89;100.00;98826.31;5122915;27;20040;-74
2024/01/03 06:01:41;;;;;;;24.75;6.88;;;;;;;9.98;100.00;98811.28;5116235;27;20046;-75
2024/01/03 06:04:06;;;;;;;36.28;7.78;;;;;;;9.89;100.00;98793.50;5117055;27;20613;-74
2024/01/03 06:06:32;;;;;;;29.38;6.55;;;;;;;9.92;100.00;98798.56;5111117;28;20044;-73
2024/01/03 06:08:57;;;;;;;29.73;6.25;;;;;;;9.84;100.00;98785.97;5118100;27;20040;-74
2024/01/03 06:11:23;;;;;;;23.23;5.95;;;;;;;9.90;100.00;98785.41;5089870;28;20525;-74
2024/01/03 06:13:51;;;;;;;24.45;5.55;;;;;;;9.90;100.00;98792.56;5107224;27;20039;-73
2024/01/03 06:16:16;;;;;;;20.13;4.68;;;;;;;9.85;100.00;98787.66;5108322;27;20044;-74
2024/01/03 06:18:42;;;;;;;32.60;5.13;;;;;;;9.85;100.00;98783.16;5091280;28;20043;-73
2024/01/03 06:21:11;;;;;;;19.83;4.63;;;;;;;9.91;100.00;98789.75;5108228;27;20036;-74
2024/01/03 06:23:37;;;;;;;16.42;4.75;;;;;;;9.98;100.00;98782.00;5103063;27;20126;-73
2024/01/03 06:26:03;;;;;;;15.32;4.38;;;;;;;9.93;100.00;98800.22;5106214;27;20047;-74
2024/01/03 06:28:29;;;;;;;17.02;4.75;;;;;;;9.88;100.00;98792.66;5085764;27;20628;-74
2024/01/03 06:30:54;;;;;;;16.00;4.47;;;;;;;9.83;100.00;98789.59;5105282;27;20028;-74
2024/01/03 06:33:19;;;;;;;18.35;4.72;;;;;;;9.92;100.00;98795.91;5097515;27;20637;-74
2024/01/03 06:35:45;;;;;;;17.00;3.83;;;;;;;9.96;100.00;98803.47;5082634;27;20451;-74
2024/01/03 06:38:11;;;;;;;11.15;3.75;;;;;;;9.94;100.00;98789.47;5103266;27;20507;-74
2024/01/03 06:40:36;;;;;;;16.33;3.88;;;;;;;9.93;100.00;98794.91;5097388;28;20040;-74
2024/01/03 06:43:02;;;;;;;18.98;3.95;;;;;;;9.88;100.00;98786.50;5085288;28;20082;-74
2024/01/03 06:45:27;;;;;;;24.30;4.78;;;;;;;9.90;100.00;98789.88;5078514;28;20470;-74
2024/01/03 06:47:53;;;;;;;16.10;3.45;;;;;;;9.84;100.00;98799.28;5097429;27;20059;-74
2024/01/03 06:50:18;;;;;;;9.43;3.15;;;;;;;9.85;100.00;98792.97;5104195;27;20535;-74
2024/01/03 06:52:44;;;;;;;9.30;3.10;;;;;;;9.79;100.00;98791.72;5087538;28;20269;-74
2024/01/03 06:55:09;;;;;;;15.15;3.75;;;;;;;9.87;100.00;98793.66;5095156;27;20040;-74
2024/01/03 06:57:35;;;;;;;9.00;2.33;;;;;;;9.81;100.00;98794.25;5101624;27;20036;-74
2024/01/03 07:00:01;;;;;;;8.35;2.47;;;;;;;9.86;100.00;98792.00;5101841;27;20032;-74
2024/01/03 07:02:26;;;;;;;10.85;2.38;;;;;;;9.87;100.00;98793.66;5096026;27;20770;-74
2024/01/03 07:04:52;;;;;;;12.35;2.60;;;;;;;9.81;100.00;98797.75;5092248;27;20032;-72
2024/01/03 07:07:17;;;;;;;9.20;2.40;;;;;;;9.91;100.00;98795.06;5096733;27;20370;-73
2024/01/03 07:09:43;;;;;;;12.75;2.25;;;;;;;9.93;100.00;98805.56;5087080;27;20083;-73
2024/01/03 07:12:09;;;;;;;11.43;2.13;;;;;;;9.99;100.00;98803.19;5099458;27;20117;-73
2024/01/03 07:14:35;;;;;;;6.45;1.80;;;;;;;9.94;100.00;98807.22;5103779;27;20032;-73
2024/01/03 07:17:00;;;;;;;6.82;1.90;;;;;;;9.93;100.00;98801.06;5099611;27;20024;-73
2024/01/03 07:19:26;;;;;;;5.40;1.48;;;;;;;9.95;100.00;98799.13;5084068;28;20465;-73
2024/01/03 07:21:51;;;;;;;7.22;1.45;;;;;;;9.91;100.00;98804.88;5102109;27;20040;-72
2024/01/03 07:24:17;;;;;;;3.58;1.15;;;;;;;9.88;100.00;98813.13;5098519;27;20790;-72
2024/01/03 07:26:42;;;;;;;2.67;1.00;;;;;;;9.83;100.00;98810.91;5101542;27;20039;-72
2024/01/03 07:29:08;;;;;;;6.18;1.15;;;;;;;9.80;100.00;98814.69;5091454;27;20035;-73
2024/01/03 07:31:33;;;;;;;6.15;1.27;;;;;;;9.81;100.00;98805.72;5097695;27;20028;-72
2024/01/03 07:33:59;;;;;;;11.27;1.40;;;;;;;9.74;100.00;98815.28;5084019;28;20040;-74
2024/01/03 07:36:24;;;;;;;3.70;1.20;;;;;;;9.80;100.00;98822.69;5080352;27;20838;-73
2024/01/03 07:38:50;;;;;;;4.57;1.20;;;;;;;9.78;100.00;98829.13;5098762;27;20048;-73
2024/01/03 07:41:21;;;;;;;5.40;1.30;;;;;;;9.72;100.00;98829.69;5102006;27;20036;-72
2024/01/03 07:43:47;;;;;;;8.10;1.70;;;;;;;9.69;100.00;98837.94;5077757;28;20037;-73
2024/01/03 07:46:15;;;;;;;13.55;2.20;;;;;;;9.67;100.00;98838.09;5094252;27;20059;-72
2024/01/03 07:48:41;;;;;;;5.95;1.30;;;;;;;9.55;100.00;98850.72;5096261;27;20044;-75
2024/01/03 07:51:06;;;;;;;4.63;1.63;;;;;;;9.54;100.00;98846.38;5090099;28;20036;-72
2024/01/03 07:53:32;;;;;;;6.63;1.98;;;;;;;9.51;100.00;98859.09;5085670;27;20036;-72
2024/01/03 07:55:58;;;;;;;6.55;1.33;;;;;;;9.51;100.00;98859.09;5094388;27;20512;-72
2024/01/03 07:58:23;;;;;;;8.95;1.88;;;;;;;9.59;100.00;98852.13;5101185;27;20126;-72
2024/01/03 08:00:49;;;;;;;5.78;1.67;;;;;;;9.60;100.00;98850.28;5076072;27;20032;-73
2024/01/03 08:03:14;;;;;;;5.53;2.05;;;;;;;9.58;100.00;98839.78;5068234;27;20562;-73
2024/01/03 08:05:40;;;;;;;2.63;1.25;;;;;;;9.48;100.00;98846.91;5102509;27;20741;-73
2024/01/03 08:08:06;;;;;;;2.92;1.63;;;;;;;9.55;100.00;98852.53;5085545;27;20039;-74
2024/01/03 08:10:32;;;;;;;1.77;0.98;;;;;;;9.51;100.00;98854.63;5102262;27;20020;-75
2024/01/03 08:12:57;;;;;;;5.15;1.38;;;;;;;9.64;100.00;98859.69;5088475;27;20870;-73
2024/01/03 08:15:23;;;;;;;2.55;1.25;;;;;;;9.58;100.00;98855.72;5099943;27;20023;-72
2024/01/03 08:17:48;;;;;;;4.03;1.10;;;;;;;9.58;100.00;98855.72;5088902;27;20386;-72
2024/01/03 08:20:14;;;;;;;4.78;1.27;;;;;;;9.58;100.00;98854.91;5068896;27;20028;-73
2024/01/03 08:22:39;;;;;;;1.77;0.70;;;;;;;9.60;100.00;98859.13;5088416;28;20036;-74
2024/01/03 08:25:05;;;;;;;8.05;1.20;;;;;;;9.59;100.00;98854.78;5088278;28;20036;-73
2024/01/03 08:27:32;;;;;;;9.98;1.80;;;;;;;9.55;100.00;98857.84;5096857;27;20036;-74
2024/01/03 08:29:57;;;;;;;6.05;1.20;;;;;;;9.58;100.00;98866.38;5092426;27;20743;-73
2024/01/03 08:32:26;;;;;;;3.13;1.40;;;;;;;9.67;100.00;98872.69;5078624;27;20055;-74
2024/01/03 08:34:52;;;;;;;5.05;1.70;;;;;;;9.74;100.00;98871.16;5079221;27;20087;-73
2024/01/03 08:37:17;;;;;;;6.10;2.00;;;;;;;9.75;100.00;98870.19;5096827;27;20578;-73
2024/01/03 08:39:43;;;;;;;12.77;2.45;;;;;;;9.73;100.00;98872.13;5086854;27;20039;-73
2024/01/03 08:42:08;;;;;;;8.55;2.60;;;;;;;9.81;100.00;98872.28;5090512;27;20513;-72
2024/01/03 08:44:34;;;;;;;14.13;2.75;;;;;;;9.73;100.00;98873.94;5094890;27;20056;-74
2024/01/03 08:46:59;;;;;;;10.98;2.78;;;;;;;9.83;100.00;98877.44;5093722;27;20118;-75
2024/01/03 08:49:25;;;;;;;8.10;2.60;;;;;;;9.91;100.00;98879.41;5094103;27;20523;-75
2024/01/03 08:51:51;;;;;;;10.73;3.28;;;;;;;9.84;100.00;98874.66;5102314;27;20040;-75
2024/01/03 08:54:16;;;;;;;15.10;2.78;;;;;;;9.83;100.00;98886.25;5099944;27;20423;-74
2024/01/03 08:56:42;;;;;;;14.73;4.03;;;;;;;9.83;100.00;98891.59;5091484;27;20466;-72
2024/01/03 08:59:07;;;;;;;8.88;3.80;;;;;;;9.89;100.00;98892.00;5098122;27;20134;-75
2024/01/03 09:01:34;;;;;;;6.25;3.25;;;;;;;9.87;100.00;98892.16;5103711;27;20032;-74
2024/01/03 09:04:00;;;;;;;6.72;3.28;;;;;;;9.97;100.00;98902.81;5080380;27;20036;-73
2024/01/03 09:06:26;;;;;;;7.70;3.65;;;;;;;9.95;100.00;98899.47;5092585;27;20066;-73
2024/01/03 09:08:54;;;;;;;10.07;4.63;;;;;;;9.99;100.00;98907.03;5089120;27;20915;-72
2024/01/03 09:11:26;;;;;;;7.18;4.45;;;;;;;9.96;100.00;98901.13;5082149;27;20036;-73
2024/01/03 09:13:52;;;;;;;12.68;5.40;;;;;;;10.00;100.00;98894.53;5091064;27;20497;-73
2024/01/03 09:16:19;;;;;;;16.05;5.18;;;;;;;10.05;100.00;98909.13;5087347;28;20032;-73
2024/01/03 09:18:46;;;;;;;10.93;5.45;;;;;;;10.15;100.00;98901.13;5086513;27;20032;-73
2024/01/03 09:21:11;;;;;;;14.30;5.72;;;;;;;10.09;100.00;98899.88;5086348;27;20035;-73
2024/01/03 09:23:37;;;;;;;13.75;5.45;;;;;;;10.06;100.00;98908.13;5099674;27;20080;-75
2024/01/03 09:26:07;;;;;;;13.52;5.72;;;;;;;10.04;100.00;98910.09;5076439;28;20891;-74
2024/01/03 09:28:34;;;;;;;25.38;7.25;;;;;;;10.05;100.00;98917.09;5091214;27;20028;-72
2024/01/03 09:31:02;;;;;;;13.50;5.78;;;;;;;9.91;100.00;98920.19;5091233;28;20032;-74
2024/01/03 09:33:28;;;;;;;21.73;7.15;;;;;;;9.98;100.00;98923.13;5082048;28;20036;-74
2024/01/03 09:35:53;;;;;;;20.08;7.07;;;;;;;9.85;100.00;98928.75;5097927;27;20084;-74
2024/01/03 09:38:19;;;;;;;28.58;6.95;;;;;;;9.88;100.00;98925.78;5062945;27;20039;-74
2024/01/03 09:40:44;;;;;;;17.00;6.20;;;;;;;9.93;100.00;98925.38;5103688;27;20385;-74
2024/01/03 09:43:11;;;;;;;26.30;6.70;;;;;;;9.98;100.00;98929.28;5095074;27;20028;-74
2024/01/03 09:45:37;;;;;;;23.13;6.38;;;;;;;9.91;100.00;98940.66;5096957;27;20047;-74
2024/01/03 09:48:04;;;;;;;16.92;6.35;;;;;;;9.98;100.00;98939.94;5105289;27;20497;-74
2024/01/03 09:50:30;;;;;;;28.00;6.32;;;;;;;9.91;100.00;98941.50;5092494;27;21438;-75
2024/01/03 09:52:56;;;;;;;22.08;6.43;;;;;;;9.94;100.00;98943.88;5096150;27;20513;-74
2024/01/03 09:55:21;;;;;;;19.58;5.63;;;;;;;9.86;100.00;98952.56;5084845;27;20467;-74
2024/01/03 09:57:49;;;;;;;20.67;6.30;;;;;;;9.88;100.00;98955.06;5076377;27;20039;-74
2024/01/03 10:00:14;;;;;;;26.27;6.90;;;;;;;9.90;100.00;98957.59;5104045;27;20954;-73
2024/01/03 10:02:40;;;;;;;32.40;7.63;;;;;;;9.82;100.00;98972.44;5099178;27;20154;-75
2024/01/03 10:05:06;;;;;;;26.45;7.43;;;;;;;9.74;100.00;98971.44;5089304;27;20047;-75
2024/01/03 10:07:36;;;;;;;23.35;7.60;;;;;;;9.77;100.00;98974.69;5100124;27;20085;-74
2024/01/03 10:10:02;;;;;;;30.73;8.20;;;;;;;9.67;100.00;98981.81;5091220;27;20099;-73
2024/01/03 10:12:34;;;;;;;29.98;7.53;;;;;;;9.85;100.00;98982.81;5097645;27;20107;-74
2024/01/03 10:15:14;;;;;;;33.20;7.13;;;;;;;9.75;100.00;98986.44;5086896;27;20032;-75
2024/01/03 10:17:42;;;;;;;36.40;7.57;;;;;;;9.74;100.00;98979.41;5103413;27;20108;-75
2024/01/03 10:20:30;;;;;;;26.75;6.93;;;;;;;9.75;100.00;98989.13;5089776;27;20032;-75
2024/01/03 10:23:09;;;;;;;23.85;6.50;;;;;;;9.55;100.00;98983.75;5100406;27;20047;-75
2024/01/03 10:25:35;;;;;;;33.30;8.10;;;;;;;9.69;100.00;98979.00;5098540;27;20032;-75
2024/01/03 10:28:02;;;;;;;26.02;7.10;;;;;;;9.81;100.00;98981.41;5099522;27;20073;-75
2024/01/03 10:30:29;;;;;;;34.03;7.32;;;;;;;9.76;100.00;98980.16;5099332;27;20143;-76
2024/01/03 10:33:03;;;;;;;40.40;9.32;;;;;;;9.79;100.00;98979.88;5108791;27;20042;-75
2024/01/03 10:35:33;;;;;;;44.30;8.02;;;;;;;9.81;100.00;98970.75;5101575;27;20032;-75
2024/01/03 10:38:00;;;;;;;33.65;7.75;;;;;;;10.05;100.00;98974.84;5117829;27;20044;-75
2024/01/03 10:40:31;;;;;;;37.28;8.10;;;;;;;10.04;100.00;98968.69;5111883;27;20035;-74
2024/01/03 10:42:58;;;;;;;39.33;7.72;;;;;;;10.05;100.00;98954.38;5092992;28;20042;-74
2024/01/03 10:45:24;;;;;;;30.70;6.72;;;;;;;10.06;100.00;98948.06;5101501;27;20042;-75
2024/01/03 10:47:51;;;;;;;34.47;8.18;;;;;;;10.17;100.00;98959.56;5103327;28;20052;-74
2024/01/03 10:50:17;;;;;;;41.85;7.55;;;;;;;10.23;100.00;98964.31;5115277;27;20032;-74
2024/01/03 10:52:44;;;;;;;29.05;7.60;;;;;;;10.35;100.00;98960.56;5108189;27;20044;-74
2024/01/03 10:55:22;;;;;;;37.97;7.75;;;;;;;10.21;100.00;98955.63;5116728;27;20327;-74
2024/01/03 10:58:02;;;;;;;36.42;7.03;;;;;;;10.39;100.00;98964.59;5118658;27;21127;-74
2024/01/03 11:00:42;;;;;;;31.23;8.48;;;;;;;10.35;100.00;98964.06;5129038;27;20020;-74
2024/01/03 11:03:36;;;;;;;31.15;6.78;;;;;;;10.55;100.00;98967.53;5097783;27;20041;-74
2024/01/03 11:06:17;;;;;;;28.98;7.40;;;;;;;10.71;100.00;98953.63;5120174;27;20035;-75
2024/01/03 11:08:57;;;;;;;41.38;8.00;;;;;;;10.70;100.00;98959.09;5117056;27;20114;-74
2024/01/03 11:11:30;;;;;;;30.55;7.32;;;;;;;10.69;100.00;98966.22;5109892;27;22057;-74
2024/01/03 11:13:57;;;;;;;31.20;8.50;;;;;;;10.74;100.00;98961.31;5088618;28;20036;-74
2024/01/03 11:16:35;;;;;;;34.70;7.70;;;;;;;10.65;100.00;98961.38;5113772;27;20063;-74
2024/01/03 11:19:01;;;;;;;30.42;7.15;;;;;;;10.75;100.00;98959.50;5103148;27;20024;-75